createdAt,value
2023-01-27T00:00:00.148Z,26.13
2023-01-27T00:02:21.724Z,26.37
2023-01-27T00:04:43.172Z,24.00
2023-01-27T00:07:04.678Z,25.83
2023-01-27T00:09:26.103Z,26.40
2023-01-27T00:12:06.283Z,20.83
2023-01-27T00:14:27.840Z,22.33
2023-01-27T00:16:49.424Z,20.33
2023-01-27T00:19:10.863Z,27.83
2023-01-27T00:21:51.037Z,21.43
2023-01-27T00:24:31.560Z,21.33
2023-01-27T00:26:53.047Z,17.50
2023-01-27T00:29:14.568Z,19.80
2023-01-27T00:31:54.874Z,16.93
2023-01-27T00:34:16.370Z,19.97
2023-01-27T00:36:39.730Z,18.20
2023-01-27T00:39:01.146Z,19.77
2023-01-27T00:41:23.335Z,20.57
2023-01-27T00:43:48.941Z,19.67
2023-01-27T00:46:10.490Z,20.37
2023-01-27T00:48:32.078Z,18.60
2023-01-27T00:50:53.625Z,20.03
2023-01-27T00:53:15.049Z,21.10
2023-01-27T00:55:36.494Z,21.43
2023-01-27T00:57:57.951Z,19.97
2023-01-27T01:00:19.559Z,21.77
2023-01-27T01:02:41.032Z,23.17
2023-01-27T01:05:03.134Z,19.47
2023-01-27T01:07:25.446Z,21.07
2023-01-27T01:09:46.916Z,20.70
2023-01-27T01:12:08.339Z,20.87
2023-01-27T01:14:29.818Z,20.43
2023-01-27T01:16:51.274Z,19.80
2023-01-27T01:19:13.232Z,19.80
2023-01-27T01:21:34.773Z,20.30
2023-01-27T01:23:56.266Z,20.27
2023-01-27T01:26:18.157Z,16.10
2023-01-27T01:28:39.644Z,20.53
2023-01-27T01:31:09.831Z,18.00
2023-01-27T01:33:31.301Z,18.33
2023-01-27T01:35:52.771Z,15.50
2023-01-27T01:38:14.425Z,16.00
2023-01-27T01:40:44.186Z,15.07
2023-01-27T01:43:11.804Z,13.67
2023-01-27T01:45:36.749Z,15.53
2023-01-27T01:48:01.065Z,14.07
2023-01-27T01:50:22.630Z,14.63
2023-01-27T01:52:44.178Z,15.07
2023-01-27T01:55:05.930Z,15.70
2023-01-27T01:57:34.503Z,13.70
2023-01-27T02:00:03.162Z,13.03
2023-01-27T02:02:26.656Z,12.87
2023-01-27T02:04:54.915Z,13.27
2023-01-27T02:07:27.469Z,15.17
2023-01-27T02:09:49.606Z,13.20
2023-01-27T02:12:11.108Z,12.63
2023-01-27T02:14:33.516Z,12.50
2023-01-27T02:16:55.148Z,14.47
2023-01-27T02:19:33.019Z,14.50
2023-01-27T02:21:56.710Z,15.00
2023-01-27T02:24:19.770Z,14.17
2023-01-27T02:26:44.103Z,12.83
2023-01-27T02:29:11.360Z,14.77
2023-01-27T02:31:33.355Z,13.50
2023-01-27T02:34:00.105Z,14.83
2023-01-27T02:36:21.661Z,16.47
2023-01-27T02:38:47.495Z,13.83
2023-01-27T02:41:15.879Z,13.20
2023-01-27T02:43:37.308Z,16.50
2023-01-27T02:45:58.849Z,12.80
2023-01-27T02:48:20.295Z,13.00
2023-01-27T02:50:41.823Z,11.73
2023-01-27T02:53:03.374Z,12.60
2023-01-27T02:55:24.883Z,12.97
2023-01-27T02:57:46.290Z,15.97
2023-01-27T03:00:09.791Z,11.10
2023-01-27T03:02:31.293Z,10.80
2023-01-27T03:04:52.714Z,11.93
2023-01-27T03:07:14.169Z,11.73
2023-01-27T03:09:35.619Z,11.07
2023-01-27T03:12:15.883Z,9.90
2023-01-27T03:14:56.105Z,10.47
2023-01-27T03:17:36.222Z,9.70
2023-01-27T03:19:57.677Z,11.40
2023-01-27T03:22:20.231Z,10.80
2023-01-27T03:24:41.639Z,12.33
2023-01-27T03:27:03.142Z,15.93
2023-01-27T03:29:43.992Z,12.87
2023-01-27T03:32:05.521Z,11.50
2023-01-27T03:34:26.941Z,13.03
2023-01-27T03:37:06.963Z,12.90
2023-01-27T03:39:48.787Z,12.23
2023-01-27T03:42:28.906Z,12.40
2023-01-27T03:45:08.829Z,11.77
2023-01-27T03:47:30.262Z,13.67
2023-01-27T03:49:54.387Z,12.60
2023-01-27T03:52:16.879Z,11.57
2023-01-27T03:54:38.375Z,14.03
2023-01-27T03:57:06.468Z,13.30
2023-01-27T03:59:28.089Z,14.17
2023-01-27T04:01:49.722Z,14.03
2023-01-27T04:04:30.719Z,15.07
2023-01-27T04:06:52.215Z,13.97
2023-01-27T04:09:20.295Z,14.63
2023-01-27T04:11:56.692Z,12.83
2023-01-27T04:14:18.429Z,10.00
2023-01-27T04:16:39.998Z,10.00
2023-01-27T04:19:01.430Z,11.40
2023-01-27T04:21:23.808Z,10.90
2023-01-27T04:23:45.267Z,11.73
2023-01-27T04:26:06.870Z,13.27
2023-01-27T04:28:41.974Z,11.57
2023-01-27T04:31:05.731Z,10.50
2023-01-27T04:33:27.222Z,12.87
2023-01-27T04:35:51.178Z,10.70
2023-01-27T04:38:13.731Z,11.23
2023-01-27T04:40:35.196Z,10.10
2023-01-27T04:42:58.196Z,9.97
2023-01-27T04:45:19.729Z,9.63
2023-01-27T04:47:41.143Z,10.17
2023-01-27T04:50:02.578Z,9.67
2023-01-27T04:52:24.140Z,8.97
2023-01-27T04:54:45.555Z,9.13
2023-01-27T04:57:07.060Z,11.07
2023-01-27T04:59:28.538Z,10.87
2023-01-27T05:01:50.450Z,8.20
2023-01-27T05:04:11.952Z,8.77
2023-01-27T05:06:34.031Z,7.97
2023-01-27T05:08:55.575Z,8.17
2023-01-27T05:11:17.980Z,9.00
2023-01-27T05:13:40.835Z,8.87
2023-01-27T05:16:07.433Z,8.33
2023-01-27T05:18:28.893Z,6.50
2023-01-27T05:20:51.517Z,7.57
2023-01-27T05:23:32.212Z,6.07
2023-01-27T05:25:53.668Z,7.90
2023-01-27T05:28:15.097Z,6.90
2023-01-27T05:30:36.868Z,8.43
2023-01-27T05:32:58.300Z,7.30
2023-01-27T05:35:19.750Z,7.77
2023-01-27T05:37:41.187Z,7.03
2023-01-27T05:40:02.627Z,7.33
2023-01-27T05:42:24.095Z,6.57
2023-01-27T05:44:45.527Z,5.00
2023-01-27T05:47:07.024Z,6.50
2023-01-27T05:49:28.518Z,5.83
2023-01-27T05:51:49.995Z,5.40
2023-01-27T05:54:11.454Z,7.33
2023-01-27T05:56:33.711Z,5.07
2023-01-27T05:58:56.680Z,12.90
2023-01-27T06:01:23.816Z,25.03
2023-01-27T06:03:46.349Z,13.57
2023-01-27T06:06:08.557Z,8.17
2023-01-27T06:08:30.476Z,20.67
2023-01-27T06:11:05.998Z,8.47
2023-01-27T06:13:27.772Z,9.97
2023-01-27T06:15:50.190Z,10.60
2023-01-27T06:18:12.240Z,18.67
2023-01-27T06:20:33.725Z,9.53
2023-01-27T06:22:55.222Z,11.33
2023-01-27T06:25:17.036Z,6.87
2023-01-27T06:27:38.525Z,7.53
2023-01-27T06:29:59.941Z,6.30
2023-01-27T06:32:21.476Z,5.20
2023-01-27T06:34:42.913Z,6.83
2023-01-27T06:37:04.582Z,4.90
2023-01-27T06:39:26.011Z,5.63
2023-01-27T06:41:49.862Z,6.33
2023-01-27T06:44:11.343Z,5.50
2023-01-27T06:46:32.883Z,5.73
2023-01-27T06:48:54.375Z,6.80
2023-01-27T06:51:15.816Z,4.93
2023-01-27T06:53:38.769Z,5.77
2023-01-27T06:56:01.099Z,8.67
2023-01-27T06:58:22.905Z,7.37
2023-01-27T07:00:44.565Z,9.67
2023-01-27T07:03:06.560Z,9.70
2023-01-27T07:05:28.032Z,12.37
2023-01-27T07:07:49.489Z,9.60
2023-01-27T07:10:24.041Z,7.70
2023-01-27T07:12:45.516Z,6.57
2023-01-27T07:15:08.860Z,7.57
2023-01-27T07:17:30.313Z,7.00
2023-01-27T07:19:51.744Z,8.00
2023-01-27T07:22:13.223Z,8.10
2023-01-27T07:24:34.736Z,6.47
2023-01-27T07:26:56.264Z,6.70
2023-01-27T07:29:18.064Z,7.77
2023-01-27T07:31:39.845Z,6.87
2023-01-27T07:34:01.284Z,4.53
2023-01-27T07:36:22.872Z,5.17
2023-01-27T07:38:44.354Z,5.00
2023-01-27T07:41:06.830Z,4.77
2023-01-27T07:43:28.235Z,6.10
2023-01-27T07:45:54.720Z,5.13
2023-01-27T07:48:16.568Z,5.03
2023-01-27T07:50:41.439Z,7.07
2023-01-27T07:53:04.772Z,6.77
2023-01-27T07:55:26.255Z,6.10
2023-01-27T07:57:47.676Z,6.53
2023-01-27T08:00:10.442Z,5.03
2023-01-27T08:02:32.036Z,6.27
2023-01-27T08:04:53.998Z,9.67
2023-01-27T08:07:15.847Z,8.70
2023-01-27T08:09:37.262Z,7.77
2023-01-27T08:11:58.737Z,10.57
2023-01-27T08:14:20.184Z,8.93
2023-01-27T08:16:41.729Z,5.67
2023-01-27T08:19:03.204Z,4.83
2023-01-27T08:21:25.436Z,4.50
2023-01-27T08:23:47.177Z,4.07
2023-01-27T08:26:08.780Z,4.43
2023-01-27T08:28:32.168Z,4.13
2023-01-27T08:30:54.353Z,5.60
2023-01-27T08:33:15.785Z,5.37
2023-01-27T08:35:39.095Z,4.80
2023-01-27T08:38:00.655Z,4.37
2023-01-27T08:40:22.159Z,4.70
2023-01-27T08:42:43.620Z,3.33
2023-01-27T08:45:05.540Z,3.37
2023-01-27T08:47:27.003Z,3.17
2023-01-27T08:49:49.156Z,3.17
2023-01-27T08:52:10.886Z,3.00
2023-01-27T08:54:32.434Z,4.00
2023-01-27T08:56:53.940Z,3.73
2023-01-27T08:59:15.350Z,5.80
2023-01-27T09:01:36.932Z,4.50
2023-01-27T09:03:58.397Z,4.23
2023-01-27T09:06:21.787Z,6.23
2023-01-27T09:08:44.697Z,3.70
2023-01-27T09:11:10.446Z,4.20
2023-01-27T09:13:31.893Z,7.23
2023-01-27T09:15:53.883Z,3.07
2023-01-27T09:18:15.354Z,4.57
2023-01-27T09:20:39.546Z,4.93
2023-01-27T09:23:02.484Z,3.97
2023-01-27T09:25:24.513Z,3.90
2023-01-27T09:27:46.376Z,3.30
2023-01-27T09:30:10.856Z,3.07
2023-01-27T09:32:32.495Z,3.47
2023-01-27T09:34:53.946Z,3.53
2023-01-27T09:37:15.703Z,3.27
2023-01-27T09:39:47.807Z,2.97
2023-01-27T09:42:27.696Z,3.50
2023-01-27T09:45:10.735Z,2.70
2023-01-27T09:47:46.473Z,4.67
2023-01-27T09:50:29.108Z,4.40
2023-01-27T09:52:58.250Z,3.87
2023-01-27T09:55:28.341Z,2.40
2023-01-27T09:58:10.992Z,5.27
2023-01-27T10:01:03.257Z,2.30
2023-01-27T10:04:02.505Z,2.83
2023-01-27T10:06:35.775Z,5.03
2023-01-27T10:08:57.191Z,2.13
2023-01-27T10:11:21.864Z,3.00
2023-01-27T10:13:45.945Z,3.47
2023-01-27T10:16:45.897Z,2.10
2023-01-27T10:19:51.818Z,2.63
2023-01-27T10:22:29.267Z,2.13
2023-01-27T10:25:15.792Z,3.33
2023-01-27T10:27:41.537Z,2.43
2023-01-27T10:30:18.111Z,2.67
2023-01-27T10:32:42.611Z,2.00
2023-01-27T10:35:22.631Z,1.10
2023-01-27T10:38:08.985Z,2.07
2023-01-27T10:40:42.495Z,5.23
2023-01-27T10:43:56.482Z,4.97
2023-01-27T10:46:47.459Z,4.90
2023-01-27T10:49:25.439Z,3.23
2023-01-27T10:51:52.547Z,8.10
2023-01-27T10:54:25.062Z,5.87
2023-01-27T10:56:57.072Z,2.63
2023-01-27T10:59:37.207Z,2.50
2023-01-27T11:02:14.432Z,2.33
2023-01-27T11:04:46.785Z,2.30
2023-01-27T11:07:16.216Z,3.33
2023-01-27T11:10:05.973Z,2.30
2023-01-27T11:12:34.630Z,1.80
2023-01-27T11:14:56.685Z,3.30
2023-01-27T11:17:52.515Z,2.17
2023-01-27T11:20:23.066Z,1.50
2023-01-27T11:22:54.038Z,2.57
2023-01-27T11:25:33.833Z,4.33
2023-01-27T11:28:04.248Z,2.57
2023-01-27T11:30:33.986Z,2.00
2023-01-27T11:33:10.761Z,2.50
2023-01-27T11:35:32.290Z,3.07
2023-01-27T11:38:00.623Z,1.83
2023-01-27T11:40:38.404Z,2.40
2023-01-27T11:43:01.854Z,2.20
2023-01-27T11:45:24.439Z,2.07
2023-01-27T11:47:49.368Z,2.27
2023-01-27T11:50:18.839Z,2.40
2023-01-27T11:52:40.318Z,2.30
2023-01-27T11:55:13.697Z,1.93
2023-01-27T11:57:37.694Z,2.17
2023-01-27T12:00:05.595Z,1.97
2023-01-27T12:02:38.277Z,2.33
2023-01-27T12:05:05.230Z,2.23
2023-01-27T12:07:42.250Z,3.10
2023-01-27T12:10:22.487Z,3.10
2023-01-27T12:12:44.571Z,3.60
2023-01-27T12:15:14.509Z,2.07
2023-01-27T12:17:40.634Z,2.47
2023-01-27T12:20:26.741Z,2.07
2023-01-27T12:22:53.226Z,2.17
2023-01-27T12:25:20.273Z,2.83
2023-01-27T12:27:49.832Z,3.10
2023-01-27T12:30:36.963Z,3.13
2023-01-27T12:32:59.910Z,3.93
2023-01-27T12:35:26.002Z,3.47
2023-01-27T12:37:48.779Z,2.80
2023-01-27T12:40:20.009Z,3.47
2023-01-27T12:42:44.247Z,3.27
2023-01-27T12:45:29.954Z,6.00
2023-01-27T12:47:57.127Z,6.87
2023-01-27T12:50:28.049Z,2.70
2023-01-27T12:53:27.194Z,3.50
2023-01-27T12:58:59.188Z,3.20
2023-01-27T13:01:20.610Z,3.30
2023-01-27T13:04:07.189Z,3.03
2023-01-27T13:06:50.554Z,2.80
2023-01-27T13:09:35.593Z,5.20
2023-01-27T13:12:00.581Z,3.43
2023-01-27T13:14:22.079Z,3.33
2023-01-27T13:16:54.841Z,3.20
2023-01-27T13:19:18.140Z,4.93
2023-01-27T13:21:39.699Z,13.33
2023-01-27T13:24:05.482Z,5.50
2023-01-27T13:26:30.728Z,13.80
2023-01-27T13:28:58.352Z,5.20
2023-01-27T13:31:50.593Z,5.20
2023-01-27T13:34:21.034Z,2.93
2023-01-27T13:36:56.754Z,4.43
2023-01-27T13:39:54.753Z,4.27
2023-01-27T13:42:37.510Z,6.30
2023-01-27T13:45:22.556Z,4.07
2023-01-27T13:48:02.097Z,3.13
2023-01-27T13:50:33.155Z,3.27
2023-01-27T13:52:57.883Z,3.43
2023-01-27T13:55:49.651Z,4.87
2023-01-27T13:58:54.751Z,3.27
2023-01-27T14:01:42.123Z,3.20
2023-01-27T14:04:11.335Z,3.83
2023-01-27T14:07:06.656Z,5.50
2023-01-27T14:10:03.363Z,6.37
2023-01-27T14:12:36.677Z,4.80
2023-01-27T14:15:06.691Z,6.70
2023-01-27T14:17:45.927Z,6.10
2023-01-27T14:20:18.367Z,7.37
2023-01-27T14:22:56.205Z,10.60
2023-01-27T14:25:17.869Z,10.43
2023-01-27T14:27:48.679Z,6.27
2023-01-27T14:30:13.683Z,8.40
2023-01-27T14:32:56.262Z,6.33
2023-01-27T14:35:23.566Z,7.13
2023-01-27T14:38:05.359Z,6.63
2023-01-27T14:40:38.041Z,8.23
2023-01-27T14:43:16.815Z,6.50
2023-01-27T14:45:43.409Z,9.00
2023-01-27T14:48:10.875Z,9.33
2023-01-27T14:50:52.180Z,7.83
2023-01-27T14:53:19.487Z,5.10
2023-01-27T14:56:02.383Z,14.00
2023-01-27T14:58:40.961Z,6.53
2023-01-27T15:01:10.626Z,5.37
2023-01-27T15:04:05.624Z,4.23
2023-01-27T15:06:47.756Z,4.30
2023-01-27T15:09:17.127Z,6.17
2023-01-27T15:11:58.861Z,5.87
2023-01-27T15:14:57.706Z,7.37
2023-01-27T15:17:38.601Z,11.17
2023-01-27T15:20:18.794Z,7.67
2023-01-27T15:23:21.656Z,8.73
2023-01-27T15:25:48.569Z,12.70
2023-01-27T15:28:15.179Z,11.63
2023-01-27T15:30:38.524Z,9.30
2023-01-27T15:33:00.331Z,4.40
2023-01-27T15:35:36.532Z,7.23
2023-01-27T15:37:59.736Z,9.93
2023-01-27T15:40:23.073Z,7.03
2023-01-27T15:42:55.197Z,4.80
2023-01-27T15:45:27.746Z,6.13
2023-01-27T15:48:17.255Z,4.50
2023-01-27T15:50:46.260Z,4.53
2023-01-27T15:53:20.635Z,4.87
2023-01-27T15:55:52.197Z,3.87
2023-01-27T15:58:22.697Z,5.00
2023-01-27T16:00:52.467Z,3.73
2023-01-27T16:03:23.584Z,11.43
2023-01-27T16:05:49.387Z,7.53
2023-01-27T16:08:16.227Z,4.90
2023-01-27T16:10:38.296Z,3.97
2023-01-27T16:13:14.796Z,3.80
2023-01-27T16:15:37.172Z,3.40
2023-01-27T16:18:07.398Z,6.07
2023-01-27T16:20:43.880Z,5.03
2023-01-27T16:23:11.762Z,3.60
2023-01-27T16:25:45.163Z,5.03
2023-01-27T16:28:30.828Z,9.03
2023-01-27T16:31:01.520Z,7.57
2023-01-27T16:33:31.082Z,6.90
2023-01-27T16:36:06.238Z,7.80
2023-01-27T16:38:38.211Z,6.00
2023-01-27T16:41:14.670Z,7.10
2023-01-27T16:43:48.751Z,5.83
2023-01-27T16:46:39.818Z,6.33
2023-01-27T16:49:05.532Z,5.43
2023-01-27T16:51:28.950Z,4.37
2023-01-27T16:53:52.345Z,5.43
2023-01-27T16:56:24.795Z,7.23
2023-01-27T16:58:49.940Z,4.70
2023-01-27T17:01:45.233Z,5.90
2023-01-27T17:04:19.524Z,6.07
2023-01-27T17:06:42.591Z,4.90
2023-01-27T17:09:19.961Z,5.60
2023-01-27T17:11:41.774Z,4.73
2023-01-27T17:14:28.565Z,5.37
2023-01-27T17:16:51.385Z,6.37
2023-01-27T17:19:20.144Z,10.57
2023-01-27T17:21:46.908Z,24.83
2023-01-27T17:24:25.168Z,10.10
2023-01-27T17:26:49.624Z,27.03
2023-01-27T17:29:22.937Z,22.67
2023-01-27T17:31:44.615Z,30.90
2023-01-27T17:34:06.408Z,16.77
2023-01-27T17:36:27.999Z,9.33
2023-01-27T17:38:51.185Z,14.27
2023-01-27T17:41:26.637Z,12.13
2023-01-27T17:43:48.751Z,12.37
2023-01-27T17:46:26.365Z,7.50
2023-01-27T17:48:58.912Z,4.20
2023-01-27T17:51:24.951Z,7.00
2023-01-27T17:53:47.260Z,7.17
2023-01-27T17:56:33.737Z,7.63
2023-01-27T17:59:03.229Z,7.67
2023-01-27T18:01:24.733Z,11.90
2023-01-27T18:03:49.554Z,9.80
2023-01-27T18:06:14.418Z,6.50
2023-01-27T18:08:36.723Z,9.47
2023-01-27T18:11:20.263Z,6.53
2023-01-27T18:13:41.673Z,4.50
2023-01-27T18:16:20.678Z,5.03
2023-01-27T18:18:42.575Z,7.03
2023-01-27T18:21:03.970Z,7.00
2023-01-27T18:23:32.648Z,6.23
2023-01-27T18:26:25.085Z,7.50
2023-01-27T18:28:51.656Z,8.43
2023-01-27T18:31:26.027Z,9.50
2023-01-27T18:33:56.273Z,5.30
2023-01-27T18:36:21.510Z,5.43
2023-01-27T18:38:49.123Z,5.90
2023-01-27T18:41:18.800Z,8.60
2023-01-27T18:43:40.273Z,7.67
2023-01-27T18:46:01.760Z,5.30
2023-01-27T18:48:23.432Z,7.30
2023-01-27T18:50:46.737Z,4.87
2023-01-27T18:53:20.514Z,5.33
2023-01-27T18:55:42.326Z,3.20
2023-01-27T18:58:03.853Z,3.97
2023-01-27T19:00:35.888Z,4.77
2023-01-27T19:03:00.940Z,3.87
2023-01-27T19:05:26.150Z,5.23
2023-01-27T19:07:47.901Z,3.90
2023-01-27T19:10:15.289Z,3.90
2023-01-27T19:12:36.744Z,4.20
2023-01-27T19:14:58.234Z,5.57
2023-01-27T19:17:23.133Z,5.73
2023-01-27T19:19:44.604Z,6.03
2023-01-27T19:22:13.624Z,5.73
2023-01-27T19:24:35.045Z,8.10
2023-01-27T19:26:56.497Z,7.63
2023-01-27T19:29:17.924Z,9.00
2023-01-27T19:31:40.632Z,9.57
2023-01-27T19:34:02.244Z,11.43
2023-01-27T19:36:43.696Z,10.37
2023-01-27T19:39:07.823Z,6.97
2023-01-27T19:41:29.278Z,8.30
2023-01-27T19:43:50.737Z,8.27
2023-01-27T19:46:15.411Z,5.83
2023-01-27T19:48:36.839Z,6.97
2023-01-27T19:50:58.362Z,10.23
2023-01-27T19:53:20.315Z,8.30
2023-01-27T19:55:42.346Z,6.37
2023-01-27T19:58:04.140Z,7.00
2023-01-27T20:00:25.551Z,7.43
2023-01-27T20:02:47.070Z,8.17
2023-01-27T20:05:08.521Z,8.50
2023-01-27T20:07:30.046Z,5.90
2023-01-27T20:09:55.106Z,7.00
2023-01-27T20:12:18.286Z,7.50
2023-01-27T20:14:39.795Z,6.37
2023-01-27T20:17:01.632Z,7.03
2023-01-27T20:19:23.566Z,6.30
2023-01-27T20:21:46.236Z,8.10
2023-01-27T20:24:08.093Z,7.83
2023-01-27T20:26:31.238Z,8.37
2023-01-27T20:28:52.730Z,7.70
2023-01-27T20:31:23.251Z,6.33
2023-01-27T20:33:56.852Z,6.07
2023-01-27T20:36:21.444Z,7.53
2023-01-27T20:38:45.007Z,4.83
2023-01-27T20:41:09.999Z,7.17
2023-01-27T20:43:35.319Z,6.40
2023-01-27T20:46:08.112Z,6.73
2023-01-27T20:48:29.600Z,8.03
2023-01-27T20:51:00.727Z,7.53
2023-01-27T20:53:23.301Z,6.23
2023-01-27T20:55:44.786Z,6.43
2023-01-27T20:58:06.351Z,5.50
2023-01-27T21:00:27.896Z,5.77
2023-01-27T21:02:49.698Z,5.07
2023-01-27T21:05:12.750Z,6.23
2023-01-27T21:07:34.614Z,5.43
2023-01-27T21:09:56.200Z,4.60
2023-01-27T21:12:17.674Z,6.70
2023-01-27T21:14:40.082Z,5.87
2023-01-27T21:17:02.652Z,7.13
2023-01-27T21:19:25.451Z,5.90
2023-01-27T21:21:47.203Z,7.67
2023-01-27T21:24:09.797Z,5.30
2023-01-27T21:26:33.347Z,5.63
2023-01-27T21:28:54.928Z,4.70
2023-01-27T21:31:18.919Z,5.03
2023-01-27T21:33:40.465Z,5.23
2023-01-27T21:36:03.413Z,7.40
2023-01-27T21:38:24.897Z,5.13
2023-01-27T21:40:46.387Z,5.60
2023-01-27T21:43:28.774Z,5.73
2023-01-27T21:46:02.572Z,4.60
2023-01-27T21:48:23.998Z,5.00
2023-01-27T21:50:51.667Z,9.10
2023-01-27T21:53:13.131Z,4.20
2023-01-27T21:55:35.431Z,5.20
2023-01-27T21:57:56.964Z,6.90
2023-01-27T22:04:06.298Z,4.90
2023-01-27T22:06:28.298Z,6.00
2023-01-27T22:08:51.817Z,5.37
2023-01-27T22:11:13.450Z,4.93
2023-01-27T22:13:39.297Z,5.73
2023-01-27T22:16:03.803Z,5.33
2023-01-27T22:18:25.301Z,3.53
2023-01-27T22:20:46.838Z,4.40
2023-01-27T22:23:08.277Z,5.90
2023-01-27T22:25:30.873Z,6.30
2023-01-27T22:27:54.468Z,6.37
2023-01-27T22:30:18.373Z,5.50
2023-01-27T22:32:40.451Z,4.93
2023-01-27T22:35:01.961Z,4.73
2023-01-27T22:37:23.465Z,7.33
2023-01-27T22:39:45.608Z,10.10
2023-01-27T22:42:07.072Z,5.93
2023-01-27T22:44:28.494Z,5.60
2023-01-27T22:46:50.870Z,6.63
2023-01-27T22:49:12.341Z,6.40
2023-01-27T22:51:33.837Z,5.77
2023-01-27T22:53:55.740Z,6.67
2023-01-27T22:56:17.308Z,9.03
2023-01-27T22:58:38.739Z,10.87
2023-01-27T23:01:00.369Z,9.03
2023-01-27T23:03:22.652Z,9.03
2023-01-27T23:05:45.181Z,7.90
2023-01-27T23:08:06.677Z,9.23
2023-01-27T23:10:28.831Z,11.13
2023-01-27T23:12:50.583Z,13.80
2023-01-27T23:15:12.977Z,7.47
2023-01-27T23:17:35.724Z,10.10
2023-01-27T23:19:57.254Z,7.90
2023-01-27T23:22:20.008Z,9.40
2023-01-27T23:24:41.608Z,9.53
2023-01-27T23:27:03.127Z,10.17
2023-01-27T23:29:26.782Z,6.83
2023-01-27T23:31:49.563Z,7.60
2023-01-27T23:34:11.061Z,8.83
2023-01-27T23:36:32.839Z,7.10
2023-01-27T23:38:54.329Z,8.70
2023-01-27T23:41:18.540Z,9.30
2023-01-27T23:43:41.946Z,7.33
2023-01-27T23:46:03.563Z,8.30
2023-01-27T23:48:25.510Z,8.40
2023-01-27T23:50:49.481Z,7.00
2023-01-27T23:53:11.168Z,8.23
2023-01-27T23:55:33.135Z,8.10
2023-01-27T23:57:54.690Z,8.20
